sensor_id;sensor_type;location;lat;lon;timestamp;temperature;humidity
82851;DHT22;72609;45.768;4.884;2024-02-23T00:01:50;10.80;72.90
82851;DHT22;72609;45.768;4.884;2024-02-23T00:04:16;10.80;73.20
82851;DHT22;72609;45.768;4.884;2024-02-23T00:06:41;10.70;72.20
82851;DHT22;72609;45.768;4.884;2024-02-23T00:09:07;10.70;73.20
82851;DHT22;72609;45.768;4.884;2024-02-23T00:11:32;10.70;72.50
82851;DHT22;72609;45.768;4.884;2024-02-23T00:14:05;10.70;73.30
82851;DHT22;72609;45.768;4.884;2024-02-23T00:16:30;10.60;70.60
82851;DHT22;72609;45.768;4.884;2024-02-23T00:18:56;10.60;69.30
82851;DHT22;72609;45.768;4.884;2024-02-23T00:21:22;10.60;73.50
82851;DHT22;72609;45.768;4.884;2024-02-23T00:23:48;10.60;74.50
82851;DHT22;72609;45.768;4.884;2024-02-23T00:26:13;10.60;75.90
82851;DHT22;72609;45.768;4.884;2024-02-23T00:28:39;10.60;73.70
82851;DHT22;72609;45.768;4.884;2024-02-23T00:31:04;10.60;72.90
82851;DHT22;72609;45.768;4.884;2024-02-23T00:33:30;10.60;76.50
82851;DHT22;72609;45.768;4.884;2024-02-23T00:35:55;10.60;76.90
82851;DHT22;72609;45.768;4.884;2024-02-23T00:38:21;10.60;77.70
82851;DHT22;72609;45.768;4.884;2024-02-23T00:40:46;10.60;80.40
82851;DHT22;72609;45.768;4.884;2024-02-23T00:43:12;10.60;78.50
82851;DHT22;72609;45.768;4.884;2024-02-23T00:45:38;10.60;78.10
82851;DHT22;72609;45.768;4.884;2024-02-23T00:48:03;10.60;78.60
82851;DHT22;72609;45.768;4.884;2024-02-23T00:50:29;10.50;79.10
82851;DHT22;72609;45.768;4.884;2024-02-23T00:52:54;10.50;79.30
82851;DHT22;72609;45.768;4.884;2024-02-23T00:55:20;10.40;71.30
82851;DHT22;72609;45.768;4.884;2024-02-23T00:57:46;10.10;66.50
82851;DHT22;72609;45.768;4.884;2024-02-23T01:00:11;10.10;76.50
82851;DHT22;72609;45.768;4.884;2024-02-23T01:02:38;10.10;73.30
82851;DHT22;72609;45.768;4.884;2024-02-23T01:05:04;10.10;75.80
82851;DHT22;72609;45.768;4.884;2024-02-23T01:07:30;10.20;75.00
82851;DHT22;72609;45.768;4.884;2024-02-23T01:09:56;10.20;75.10
82851;DHT22;72609;45.768;4.884;2024-02-23T01:12:22;10.20;73.80
82851;DHT22;72609;45.768;4.884;2024-02-23T01:14:47;10.20;75.40
82851;DHT22;72609;45.768;4.884;2024-02-23T01:17:14;10.20;74.70
82851;DHT22;72609;45.768;4.884;2024-02-23T01:19:41;10.20;75.50
82851;DHT22;72609;45.768;4.884;2024-02-23T01:22:07;10.20;74.90
82851;DHT22;72609;45.768;4.884;2024-02-23T01:24:33;10.20;76.20
82851;DHT22;72609;45.768;4.884;2024-02-23T01:26:59;10.20;77.60
82851;DHT22;72609;45.768;4.884;2024-02-23T01:29:26;10.20;76.60
82851;DHT22;72609;45.768;4.884;2024-02-23T01:31:51;10.20;73.90
82851;DHT22;72609;45.768;4.884;2024-02-23T01:34:17;10.20;74.80
82851;DHT22;72609;45.768;4.884;2024-02-23T01:36:44;10.10;72.90
82851;DHT22;72609;45.768;4.884;2024-02-23T01:39:09;10.00;74.00
82851;DHT22;72609;45.768;4.884;2024-02-23T01:41:36;10.00;77.70
82851;DHT22;72609;45.768;4.884;2024-02-23T01:44:02;10.00;79.20
82851;DHT22;72609;45.768;4.884;2024-02-23T01:46:27;9.90;74.60
82851;DHT22;72609;45.768;4.884;2024-02-23T01:48:53;9.90;78.90
82851;DHT22;72609;45.768;4.884;2024-02-23T01:51:19;9.90;75.70
82851;DHT22;72609;45.768;4.884;2024-02-23T01:53:45;9.90;80.00
82851;DHT22;72609;45.768;4.884;2024-02-23T01:56:12;9.90;79.50
82851;DHT22;72609;45.768;4.884;2024-02-23T01:58:39;9.90;78.60
82851;DHT22;72609;45.768;4.884;2024-02-23T02:01:05;9.90;77.00
82851;DHT22;72609;45.768;4.884;2024-02-23T02:03:32;9.80;74.80
82851;DHT22;72609;45.768;4.884;2024-02-23T02:05:58;9.80;79.40
82851;DHT22;72609;45.768;4.884;2024-02-23T02:08:25;9.90;78.10
82851;DHT22;72609;45.768;4.884;2024-02-23T02:10:51;9.90;78.20
82851;DHT22;72609;45.768;4.884;2024-02-23T02:13:17;9.80;78.50
82851;DHT22;72609;45.768;4.884;2024-02-23T02:18:09;9.80;78.00
82851;DHT22;72609;45.768;4.884;2024-02-23T02:20:36;9.80;79.20
82851;DHT22;72609;45.768;4.884;2024-02-23T02:23:02;9.70;79.80
82851;DHT22;72609;45.768;4.884;2024-02-23T02:25:28;9.70;80.80
82851;DHT22;72609;45.768;4.884;2024-02-23T02:27:54;9.70;77.50
82851;DHT22;72609;45.768;4.884;2024-02-23T02:30:19;9.60;70.80
82851;DHT22;72609;45.768;4.884;2024-02-23T02:32:45;9.30;77.80
82851;DHT22;72609;45.768;4.884;2024-02-23T02:35:11;9.30;81.80
82851;DHT22;72609;45.768;4.884;2024-02-23T02:37:40;9.50;78.60
82851;DHT22;72609;45.768;4.884;2024-02-23T02:40:06;9.50;80.30
82851;DHT22;72609;45.768;4.884;2024-02-23T02:42:33;9.60;80.90
82851;DHT22;72609;45.768;4.884;2024-02-23T02:44:58;9.50;74.10
82851;DHT22;72609;45.768;4.884;2024-02-23T02:47:25;9.50;78.70
82851;DHT22;72609;45.768;4.884;2024-02-23T02:49:50;9.50;79.80
82851;DHT22;72609;45.768;4.884;2024-02-23T02:52:16;9.40;77.40
82851;DHT22;72609;45.768;4.884;2024-02-23T02:54:42;9.50;81.30
82851;DHT22;72609;45.768;4.884;2024-02-23T02:57:07;9.50;79.10
82851;DHT22;72609;45.768;4.884;2024-02-23T02:59:36;9.40;78.90
82851;DHT22;72609;45.768;4.884;2024-02-23T03:02:01;9.50;78.30
82851;DHT22;72609;45.768;4.884;2024-02-23T03:04:27;9.50;78.60
82851;DHT22;72609;45.768;4.884;2024-02-23T03:06:53;9.50;77.20
82851;DHT22;72609;45.768;4.884;2024-02-23T03:09:18;9.50;78.90
82851;DHT22;72609;45.768;4.884;2024-02-23T03:11:44;9.50;77.40
82851;DHT22;72609;45.768;4.884;2024-02-23T03:14:09;9.60;78.00
82851;DHT22;72609;45.768;4.884;2024-02-23T03:16:35;9.50;77.90
82851;DHT22;72609;45.768;4.884;2024-02-23T03:19:03;9.50;79.20
82851;DHT22;72609;45.768;4.884;2024-02-23T03:21:28;9.50;78.60
82851;DHT22;72609;45.768;4.884;2024-02-23T03:23:54;9.60;78.40
82851;DHT22;72609;45.768;4.884;2024-02-23T03:26:20;9.60;79.50
82851;DHT22;72609;45.768;4.884;2024-02-23T03:28:45;9.60;81.10
82851;DHT22;72609;45.768;4.884;2024-02-23T03:31:11;9.50;79.00
82851;DHT22;72609;45.768;4.884;2024-02-23T03:33:36;9.40;80.10
82851;DHT22;72609;45.768;4.884;2024-02-23T03:36:03;9.30;75.80
82851;DHT22;72609;45.768;4.884;2024-02-23T03:38:28;9.10;75.80
82851;DHT22;72609;45.768;4.884;2024-02-23T03:40:55;9.10;77.10
82851;DHT22;72609;45.768;4.884;2024-02-23T03:43:21;9.10;77.50
82851;DHT22;72609;45.768;4.884;2024-02-23T03:45:47;9.00;79.40
82851;DHT22;72609;45.768;4.884;2024-02-23T03:48:12;9.00;76.90
82851;DHT22;72609;45.768;4.884;2024-02-23T03:50:38;9.10;80.20
82851;DHT22;72609;45.768;4.884;2024-02-23T03:53:04;9.20;84.30
82851;DHT22;72609;45.768;4.884;2024-02-23T03:55:29;9.20;81.90
82851;DHT22;72609;45.768;4.884;2024-02-23T03:57:55;9.10;79.30
82851;DHT22;72609;45.768;4.884;2024-02-23T04:00:21;9.10;80.80
82851;DHT22;72609;45.768;4.884;2024-02-23T04:02:48;9.20;83.30
82851;DHT22;72609;45.768;4.884;2024-02-23T04:05:14;9.20;82.10
82851;DHT22;72609;45.768;4.884;2024-02-23T04:07:40;9.30;82.90
82851;DHT22;72609;45.768;4.884;2024-02-23T04:10:06;9.20;79.40
82851;DHT22;72609;45.768;4.884;2024-02-23T04:12:32;9.20;79.10
82851;DHT22;72609;45.768;4.884;2024-02-23T04:14:58;9.10;77.00
82851;DHT22;72609;45.768;4.884;2024-02-23T04:17:23;9.20;79.60
82851;DHT22;72609;45.768;4.884;2024-02-23T04:19:49;9.10;78.10
82851;DHT22;72609;45.768;4.884;2024-02-23T04:22:15;9.10;78.80
82851;DHT22;72609;45.768;4.884;2024-02-23T04:24:41;9.10;78.50
82851;DHT22;72609;45.768;4.884;2024-02-23T04:27:07;8.90;76.70
82851;DHT22;72609;45.768;4.884;2024-02-23T04:29:33;8.80;76.70
82851;DHT22;72609;45.768;4.884;2024-02-23T04:32:02;8.80;77.50
82851;DHT22;72609;45.768;4.884;2024-02-23T04:34:28;8.80;80.30
82851;DHT22;72609;45.768;4.884;2024-02-23T04:36:54;8.80;79.50
82851;DHT22;72609;45.768;4.884;2024-02-23T04:39:21;9.00;79.20
82851;DHT22;72609;45.768;4.884;2024-02-23T04:41:47;8.90;77.60
82851;DHT22;72609;45.768;4.884;2024-02-23T04:44:12;8.80;74.00
82851;DHT22;72609;45.768;4.884;2024-02-23T04:46:38;8.80;75.40
82851;DHT22;72609;45.768;4.884;2024-02-23T04:49:04;8.70;77.20
82851;DHT22;72609;45.768;4.884;2024-02-23T04:51:29;8.70;74.10
82851;DHT22;72609;45.768;4.884;2024-02-23T04:53:55;8.60;73.00
82851;DHT22;72609;45.768;4.884;2024-02-23T04:56:20;8.70;74.80
82851;DHT22;72609;45.768;4.884;2024-02-23T04:58:46;8.70;75.70
82851;DHT22;72609;45.768;4.884;2024-02-23T05:01:12;8.70;73.50
82851;DHT22;72609;45.768;4.884;2024-02-23T05:03:38;8.60;72.70
82851;DHT22;72609;45.768;4.884;2024-02-23T05:06:04;8.50;74.40
82851;DHT22;72609;45.768;4.884;2024-02-23T05:08:30;8.60;74.90
82851;DHT22;72609;45.768;4.884;2024-02-23T05:10:56;8.60;76.20
82851;DHT22;72609;45.768;4.884;2024-02-23T05:13:22;8.60;72.70
82851;DHT22;72609;45.768;4.884;2024-02-23T05:15:48;8.50;74.20
82851;DHT22;72609;45.768;4.884;2024-02-23T05:18:13;8.50;74.70
82851;DHT22;72609;45.768;4.884;2024-02-23T05:20:39;8.60;75.70
82851;DHT22;72609;45.768;4.884;2024-02-23T05:23:05;8.60;75.00
82851;DHT22;72609;45.768;4.884;2024-02-23T05:25:30;8.60;73.70
82851;DHT22;72609;45.768;4.884;2024-02-23T05:27:56;8.50;73.10
82851;DHT22;72609;45.768;4.884;2024-02-23T05:30:21;8.50;73.80
82851;DHT22;72609;45.768;4.884;2024-02-23T05:32:48;8.40;73.90
82851;DHT22;72609;45.768;4.884;2024-02-23T05:35:13;8.50;76.30
82851;DHT22;72609;45.768;4.884;2024-02-23T05:37:40;8.60;76.80
82851;DHT22;72609;45.768;4.884;2024-02-23T05:40:06;8.60;75.50
82851;DHT22;72609;45.768;4.884;2024-02-23T05:42:36;8.60;75.60
82851;DHT22;72609;45.768;4.884;2024-02-23T05:45:02;8.60;73.90
82851;DHT22;72609;45.768;4.884;2024-02-23T05:47:30;8.60;76.40
82851;DHT22;72609;45.768;4.884;2024-02-23T05:49:55;8.60;76.90
82851;DHT22;72609;45.768;4.884;2024-02-23T05:52:21;8.70;76.70
82851;DHT22;72609;45.768;4.884;2024-02-23T05:54:47;8.70;75.10
82851;DHT22;72609;45.768;4.884;2024-02-23T05:57:13;8.60;68.80
82851;DHT22;72609;45.768;4.884;2024-02-23T05:59:38;8.60;74.80
82851;DHT22;72609;45.768;4.884;2024-02-23T06:02:04;8.60;75.20
82851;DHT22;72609;45.768;4.884;2024-02-23T06:04:29;8.60;73.40
82851;DHT22;72609;45.768;4.884;2024-02-23T06:06:55;8.40;71.50
82851;DHT22;72609;45.768;4.884;2024-02-23T06:09:21;8.40;73.40
82851;DHT22;72609;45.768;4.884;2024-02-23T06:11:46;8.40;73.20
82851;DHT22;72609;45.768;4.884;2024-02-23T06:14:12;8.40;73.20
82851;DHT22;72609;45.768;4.884;2024-02-23T06:16:38;8.50;73.80
82851;DHT22;72609;45.768;4.884;2024-02-23T06:19:03;8.50;73.90
82851;DHT22;72609;45.768;4.884;2024-02-23T06:21:29;8.40;72.80
82851;DHT22;72609;45.768;4.884;2024-02-23T06:23:55;8.40;74.30
82851;DHT22;72609;45.768;4.884;2024-02-23T06:26:21;8.40;73.10
82851;DHT22;72609;45.768;4.884;2024-02-23T06:28:47;8.40;74.00
82851;DHT22;72609;45.768;4.884;2024-02-23T06:31:14;8.50;74.80
82851;DHT22;72609;45.768;4.884;2024-02-23T06:33:40;8.50;74.00
82851;DHT22;72609;45.768;4.884;2024-02-23T06:36:09;8.50;72.60
82851;DHT22;72609;45.768;4.884;2024-02-23T06:38:35;8.40;74.50
82851;DHT22;72609;45.768;4.884;2024-02-23T06:41:00;8.40;74.60
82851;DHT22;72609;45.768;4.884;2024-02-23T06:43:26;8.50;74.80
82851;DHT22;72609;45.768;4.884;2024-02-23T06:45:52;8.40;74.20
82851;DHT22;72609;45.768;4.884;2024-02-23T06:48:18;8.40;74.80
82851;DHT22;72609;45.768;4.884;2024-02-23T06:50:43;8.30;74.50
82851;DHT22;72609;45.768;4.884;2024-02-23T06:53:09;8.20;75.30
82851;DHT22;72609;45.768;4.884;2024-02-23T06:55:35;8.10;75.30
82851;DHT22;72609;45.768;4.884;2024-02-23T06:58:01;8.20;78.30
82851;DHT22;72609;45.768;4.884;2024-02-23T07:00:27;8.20;75.70
82851;DHT22;72609;45.768;4.884;2024-02-23T07:02:53;8.20;75.10
82851;DHT22;72609;45.768;4.884;2024-02-23T07:05:19;8.20;75.10
82851;DHT22;72609;45.768;4.884;2024-02-23T07:07:45;8.20;74.60
82851;DHT22;72609;45.768;4.884;2024-02-23T07:10:11;8.30;74.90
82851;DHT22;72609;45.768;4.884;2024-02-23T07:12:37;8.10;72.30
82851;DHT22;72609;45.768;4.884;2024-02-23T07:15:03;8.10;75.00
82851;DHT22;72609;45.768;4.884;2024-02-23T07:17:28;8.10;74.60
82851;DHT22;72609;45.768;4.884;2024-02-23T07:19:54;8.10;74.70
82851;DHT22;72609;45.768;4.884;2024-02-23T07:22:28;8.10;75.20
82851;DHT22;72609;45.768;4.884;2024-02-23T07:24:53;8.10;73.70
82851;DHT22;72609;45.768;4.884;2024-02-23T07:27:19;8.10;73.10
82851;DHT22;72609;45.768;4.884;2024-02-23T07:29:44;8.20;74.50
82851;DHT22;72609;45.768;4.884;2024-02-23T07:32:10;8.30;74.30
82851;DHT22;72609;45.768;4.884;2024-02-23T07:34:36;8.50;74.60
82851;DHT22;72609;45.768;4.884;2024-02-23T07:37:02;8.60;73.20
82851;DHT22;72609;45.768;4.884;2024-02-23T07:39:28;8.60;72.00
82851;DHT22;72609;45.768;4.884;2024-02-23T07:41:53;8.70;72.60
82851;DHT22;72609;45.768;4.884;2024-02-23T07:44:19;8.60;70.60
82851;DHT22;72609;45.768;4.884;2024-02-23T07:46:44;8.70;70.30
82851;DHT22;72609;45.768;4.884;2024-02-23T07:49:10;8.70;71.00
82851;DHT22;72609;45.768;4.884;2024-02-23T07:51:36;8.80;71.40
82851;DHT22;72609;45.768;4.884;2024-02-23T07:54:01;8.70;67.90
82851;DHT22;72609;45.768;4.884;2024-02-23T07:56:27;8.80;70.90
82851;DHT22;72609;45.768;4.884;2024-02-23T07:58:54;9.10;72.60
82851;DHT22;72609;45.768;4.884;2024-02-23T08:01:19;9.30;70.00
82851;DHT22;72609;45.768;4.884;2024-02-23T08:03:45;9.50;68.90
82851;DHT22;72609;45.768;4.884;2024-02-23T08:06:11;9.60;68.20
82851;DHT22;72609;45.768;4.884;2024-02-23T08:08:38;9.70;68.80
82851;DHT22;72609;45.768;4.884;2024-02-23T08:11:04;9.90;69.10
82851;DHT22;72609;45.768;4.884;2024-02-23T08:13:29;9.80;65.80
82851;DHT22;72609;45.768;4.884;2024-02-23T08:15:56;9.90;65.90
82851;DHT22;72609;45.768;4.884;2024-02-23T08:18:22;10.00;68.70
82851;DHT22;72609;45.768;4.884;2024-02-23T08:20:48;10.00;66.90
82851;DHT22;72609;45.768;4.884;2024-02-23T08:23:14;10.00;66.90
82851;DHT22;72609;45.768;4.884;2024-02-23T08:25:39;9.90;66.70
82851;DHT22;72609;45.768;4.884;2024-02-23T08:28:05;9.70;63.60
82851;DHT22;72609;45.768;4.884;2024-02-23T08:30:31;9.80;67.30
82851;DHT22;72609;45.768;4.884;2024-02-23T08:32:57;9.90;68.10
82851;DHT22;72609;45.768;4.884;2024-02-23T08:35:23;9.90;66.30
82851;DHT22;72609;45.768;4.884;2024-02-23T08:37:48;10.00;66.90
82851;DHT22;72609;45.768;4.884;2024-02-23T08:40:14;10.00;65.20
82851;DHT22;72609;45.768;4.884;2024-02-23T08:42:40;10.00;65.20
82851;DHT22;72609;45.768;4.884;2024-02-23T08:45:06;10.10;65.60
82851;DHT22;72609;45.768;4.884;2024-02-23T08:47:31;10.10;64.50
82851;DHT22;72609;45.768;4.884;2024-02-23T08:49:59;10.30;65.70
82851;DHT22;72609;45.768;4.884;2024-02-23T08:52:25;10.50;65.10
82851;DHT22;72609;45.768;4.884;2024-02-23T08:54:51;10.50;62.70
82851;DHT22;72609;45.768;4.884;2024-02-23T08:57:17;10.40;62.60
82851;DHT22;72609;45.768;4.884;2024-02-23T08:59:45;10.20;62.80
82851;DHT22;72609;45.768;4.884;2024-02-23T09:02:11;10.20;63.00
82851;DHT22;72609;45.768;4.884;2024-02-23T09:04:36;10.10;64.20
82851;DHT22;72609;45.768;4.884;2024-02-23T09:07:02;10.20;64.90
82851;DHT22;72609;45.768;4.884;2024-02-23T09:09:28;10.20;63.70
82851;DHT22;72609;45.768;4.884;2024-02-23T09:11:53;10.20;62.60
82851;DHT22;72609;45.768;4.884;2024-02-23T09:14:19;10.30;64.20
82851;DHT22;72609;45.768;4.884;2024-02-23T09:16:44;10.30;62.50
82851;DHT22;72609;45.768;4.884;2024-02-23T09:19:11;10.30;63.60
82851;DHT22;72609;45.768;4.884;2024-02-23T09:21:37;10.40;62.90
82851;DHT22;72609;45.768;4.884;2024-02-23T09:24:03;10.40;63.70
82851;DHT22;72609;45.768;4.884;2024-02-23T09:26:29;10.40;64.10
82851;DHT22;72609;45.768;4.884;2024-02-23T09:28:55;10.40;63.40
82851;DHT22;72609;45.768;4.884;2024-02-23T09:31:21;10.40;62.60
82851;DHT22;72609;45.768;4.884;2024-02-23T09:33:46;10.50;63.90
82851;DHT22;72609;45.768;4.884;2024-02-23T09:36:14;10.50;62.10
82851;DHT22;72609;45.768;4.884;2024-02-23T09:38:39;10.60;63.60
82851;DHT22;72609;45.768;4.884;2024-02-23T09:41:15;10.60;60.70
82851;DHT22;72609;45.768;4.884;2024-02-23T09:43:44;10.50;59.60
82851;DHT22;72609;45.768;4.884;2024-02-23T09:46:12;10.40;59.50
82851;DHT22;72609;45.768;4.884;2024-02-23T09:48:38;10.40;59.40
82851;DHT22;72609;45.768;4.884;2024-02-23T09:51:05;10.50;60.50
82851;DHT22;72609;45.768;4.884;2024-02-23T09:53:33;10.60;61.60
82851;DHT22;72609;45.768;4.884;2024-02-23T09:55:59;10.60;58.80
82851;DHT22;72609;45.768;4.884;2024-02-23T09:58:26;10.70;60.40
82851;DHT22;72609;45.768;4.884;2024-02-23T10:00:56;10.70;59.90
82851;DHT22;72609;45.768;4.884;2024-02-23T10:03:27;10.80;59.90
82851;DHT22;72609;45.768;4.884;2024-02-23T10:05:55;10.70;58.40
82851;DHT22;72609;45.768;4.884;2024-02-23T10:08:21;10.60;58.50
82851;DHT22;72609;45.768;4.884;2024-02-23T10:10:47;10.70;60.60
82851;DHT22;72609;45.768;4.884;2024-02-23T10:13:18;10.70;60.70
82851;DHT22;72609;45.768;4.884;2024-02-23T10:15:48;10.80;59.60
82851;DHT22;72609;45.768;4.884;2024-02-23T10:18:14;10.80;56.60
82851;DHT22;72609;45.768;4.884;2024-02-23T10:20:40;10.70;56.90
82851;DHT22;72609;45.768;4.884;2024-02-23T10:23:07;10.70;57.40
82851;DHT22;72609;45.768;4.884;2024-02-23T10:25:36;10.70;58.50
82851;DHT22;72609;45.768;4.884;2024-02-23T10:28:06;10.80;59.30
82851;DHT22;72609;45.768;4.884;2024-02-23T10:30:32;10.90;58.70
82851;DHT22;72609;45.768;4.884;2024-02-23T10:32:58;10.90;58.40
82851;DHT22;72609;45.768;4.884;2024-02-23T10:35:25;10.90;57.80
82851;DHT22;72609;45.768;4.884;2024-02-23T10:37:52;10.80;56.20
82851;DHT22;72609;45.768;4.884;2024-02-23T10:40:20;10.80;57.50
82851;DHT22;72609;45.768;4.884;2024-02-23T10:42:47;10.80;58.80
82851;DHT22;72609;45.768;4.884;2024-02-23T10:45:18;10.80;56.80
82851;DHT22;72609;45.768;4.884;2024-02-23T10:47:44;10.80;57.20
82851;DHT22;72609;45.768;4.884;2024-02-23T10:50:10;10.80;58.40
82851;DHT22;72609;45.768;4.884;2024-02-23T10:52:43;10.80;58.10
82851;DHT22;72609;45.768;4.884;2024-02-23T10:55:09;10.80;57.50
82851;DHT22;72609;45.768;4.884;2024-02-23T10:57:35;10.70;57.60
82851;DHT22;72609;45.768;4.884;2024-02-23T11:00:02;10.70;57.70
82851;DHT22;72609;45.768;4.884;2024-02-23T11:02:32;10.70;58.10
82851;DHT22;72609;45.768;4.884;2024-02-23T11:04:59;10.60;57.50
82851;DHT22;72609;45.768;4.884;2024-02-23T11:07:25;10.60;58.00
82851;DHT22;72609;45.768;4.884;2024-02-23T11:09:58;10.70;58.50
82851;DHT22;72609;45.768;4.884;2024-02-23T11:12:29;10.80;59.20
82851;DHT22;72609;45.768;4.884;2024-02-23T11:14:59;10.90;58.00
82851;DHT22;72609;45.768;4.884;2024-02-23T11:17:30;10.90;58.40
82851;DHT22;72609;45.768;4.884;2024-02-23T11:19:56;10.90;57.40
82851;DHT22;72609;45.768;4.884;2024-02-23T11:22:26;10.90;57.30
82851;DHT22;72609;45.768;4.884;2024-02-23T11:24:52;10.80;57.30
82851;DHT22;72609;45.768;4.884;2024-02-23T11:27:18;10.80;57.50
82851;DHT22;72609;45.768;4.884;2024-02-23T11:29:47;10.80;57.50
82851;DHT22;72609;45.768;4.884;2024-02-23T11:32:17;10.80;56.80
82851;DHT22;72609;45.768;4.884;2024-02-23T11:34:54;10.80;56.90
82851;DHT22;72609;45.768;4.884;2024-02-23T11:37:21;10.90;56.70
82851;DHT22;72609;45.768;4.884;2024-02-23T11:39:47;10.90;56.90
82851;DHT22;72609;45.768;4.884;2024-02-23T11:42:13;10.90;56.00
82851;DHT22;72609;45.768;4.884;2024-02-23T11:44:39;10.90;57.10
82851;DHT22;72609;45.768;4.884;2024-02-23T11:47:04;10.90;56.70
82851;DHT22;72609;45.768;4.884;2024-02-23T11:49:30;10.90;57.00
82851;DHT22;72609;45.768;4.884;2024-02-23T11:51:56;10.90;57.70
82851;DHT22;72609;45.768;4.884;2024-02-23T11:54:22;10.90;56.60
82851;DHT22;72609;45.768;4.884;2024-02-23T11:56:48;10.90;56.20
82851;DHT22;72609;45.768;4.884;2024-02-23T11:59:15;10.80;55.90
82851;DHT22;72609;45.768;4.884;2024-02-23T12:01:41;10.80;56.60
82851;DHT22;72609;45.768;4.884;2024-02-23T12:04:07;10.90;57.30
82851;DHT22;72609;45.768;4.884;2024-02-23T12:06:33;10.90;57.40
82851;DHT22;72609;45.768;4.884;2024-02-23T12:09:00;11.10;58.00
82851;DHT22;72609;45.768;4.884;2024-02-23T12:11:26;11.20;57.60
82851;DHT22;72609;45.768;4.884;2024-02-23T12:13:53;11.20;56.60
82851;DHT22;72609;45.768;4.884;2024-02-23T12:16:20;11.20;56.90
82851;DHT22;72609;45.768;4.884;2024-02-23T12:18:52;11.20;56.70
82851;DHT22;72609;45.768;4.884;2024-02-23T12:21:18;11.10;56.70
82851;DHT22;72609;45.768;4.884;2024-02-23T12:23:45;11.10;58.10
82851;DHT22;72609;45.768;4.884;2024-02-23T12:26:13;11.10;58.60
82851;DHT22;72609;45.768;4.884;2024-02-23T12:28:39;11.00;58.40
82851;DHT22;72609;45.768;4.884;2024-02-23T12:31:06;11.00;57.30
82851;DHT22;72609;45.768;4.884;2024-02-23T12:33:33;11.10;58.10
82851;DHT22;72609;45.768;4.884;2024-02-23T12:36:00;11.10;57.70
82851;DHT22;72609;45.768;4.884;2024-02-23T12:38:25;11.00;56.80
82851;DHT22;72609;45.768;4.884;2024-02-23T12:40:51;11.00;56.60
82851;DHT22;72609;45.768;4.884;2024-02-23T12:43:17;11.00;57.40
82851;DHT22;72609;45.768;4.884;2024-02-23T12:45:43;11.00;56.90
82851;DHT22;72609;45.768;4.884;2024-02-23T12:48:15;11.00;56.80
82851;DHT22;72609;45.768;4.884;2024-02-23T12:50:41;10.90;57.30
82851;DHT22;72609;45.768;4.884;2024-02-23T12:53:08;11.00;57.30
82851;DHT22;72609;45.768;4.884;2024-02-23T12:55:34;11.10;57.20
82851;DHT22;72609;45.768;4.884;2024-02-23T12:58:02;11.10;57.00
82851;DHT22;72609;45.768;4.884;2024-02-23T13:00:28;11.10;57.80
82851;DHT22;72609;45.768;4.884;2024-02-23T13:02:54;11.20;57.20
82851;DHT22;72609;45.768;4.884;2024-02-23T13:05:19;11.20;57.30
82851;DHT22;72609;45.768;4.884;2024-02-23T13:07:45;11.20;58.30
82851;DHT22;72609;45.768;4.884;2024-02-23T13:10:12;11.30;58.20
82851;DHT22;72609;45.768;4.884;2024-02-23T13:12:38;11.30;57.30
82851;DHT22;72609;45.768;4.884;2024-02-23T13:15:04;11.30;57.30
82851;DHT22;72609;45.768;4.884;2024-02-23T13:17:29;11.20;57.60
82851;DHT22;72609;45.768;4.884;2024-02-23T13:19:55;11.20;58.30
82851;DHT22;72609;45.768;4.884;2024-02-23T13:22:21;11.30;57.40
82851;DHT22;72609;45.768;4.884;2024-02-23T13:24:46;11.30;57.80
82851;DHT22;72609;45.768;4.884;2024-02-23T13:27:12;11.30;57.80
82851;DHT22;72609;45.768;4.884;2024-02-23T13:29:37;11.30;57.00
82851;DHT22;72609;45.768;4.884;2024-02-23T13:32:03;11.30;57.50
82851;DHT22;72609;45.768;4.884;2024-02-23T13:34:29;11.30;56.70
82851;DHT22;72609;45.768;4.884;2024-02-23T13:36:54;11.30;57.90
82851;DHT22;72609;45.768;4.884;2024-02-23T13:39:20;11.30;57.90
82851;DHT22;72609;45.768;4.884;2024-02-23T13:41:49;11.40;58.30
82851;DHT22;72609;45.768;4.884;2024-02-23T13:44:14;11.40;58.20
82851;DHT22;72609;45.768;4.884;2024-02-23T13:46:40;11.50;58.70
82851;DHT22;72609;45.768;4.884;2024-02-23T13:49:07;11.40;59.10
82851;DHT22;72609;45.768;4.884;2024-02-23T13:51:34;11.50;58.90
82851;DHT22;72609;45.768;4.884;2024-02-23T13:54:00;11.50;58.30
82851;DHT22;72609;45.768;4.884;2024-02-23T13:56:25;11.50;58.50
82851;DHT22;72609;45.768;4.884;2024-02-23T13:58:51;11.60;58.50
82851;DHT22;72609;45.768;4.884;2024-02-23T14:01:16;11.60;58.80
82851;DHT22;72609;45.768;4.884;2024-02-23T14:03:42;11.60;58.50
82851;DHT22;72609;45.768;4.884;2024-02-23T14:06:08;11.70;58.70
82851;DHT22;72609;45.768;4.884;2024-02-23T14:08:34;11.60;57.70
82851;DHT22;72609;45.768;4.884;2024-02-23T14:11:03;11.60;57.20
82851;DHT22;72609;45.768;4.884;2024-02-23T14:13:31;11.70;56.80
82851;DHT22;72609;45.768;4.884;2024-02-23T14:15:57;11.60;57.70
82851;DHT22;72609;45.768;4.884;2024-02-23T14:18:23;11.70;58.40
82851;DHT22;72609;45.768;4.884;2024-02-23T14:20:49;11.70;58.70
82851;DHT22;72609;45.768;4.884;2024-02-23T14:23:14;11.70;58.80
82851;DHT22;72609;45.768;4.884;2024-02-23T14:25:40;11.70;57.50
82851;DHT22;72609;45.768;4.884;2024-02-23T14:28:05;11.70;56.90
82851;DHT22;72609;45.768;4.884;2024-02-23T14:30:31;11.70;56.30
82851;DHT22;72609;45.768;4.884;2024-02-23T14:32:57;11.60;56.00
82851;DHT22;72609;45.768;4.884;2024-02-23T14:35:22;11.60;56.90
82851;DHT22;72609;45.768;4.884;2024-02-23T14:37:48;11.50;57.40
82851;DHT22;72609;45.768;4.884;2024-02-23T14:40:14;11.40;57.30
82851;DHT22;72609;45.768;4.884;2024-02-23T14:42:40;11.40;57.50
82851;DHT22;72609;45.768;4.884;2024-02-23T14:45:06;11.40;58.10
82851;DHT22;72609;45.768;4.884;2024-02-23T14:47:32;11.40;58.90
82851;DHT22;72609;45.768;4.884;2024-02-23T14:49:58;11.30;58.90
82851;DHT22;72609;45.768;4.884;2024-02-23T14:52:23;11.20;59.70
82851;DHT22;72609;45.768;4.884;2024-02-23T14:54:49;11.10;60.60
82851;DHT22;72609;45.768;4.884;2024-02-23T14:57:14;11.00;61.00
82851;DHT22;72609;45.768;4.884;2024-02-23T14:59:40;10.90;61.30
82851;DHT22;72609;45.768;4.884;2024-02-23T15:02:17;10.80;61.20
82851;DHT22;72609;45.768;4.884;2024-02-23T15:04:43;10.80;61.20
82851;DHT22;72609;45.768;4.884;2024-02-23T15:07:09;10.80;60.80
82851;DHT22;72609;45.768;4.884;2024-02-23T15:09:35;10.80;61.20
82851;DHT22;72609;45.768;4.884;2024-02-23T15:12:01;10.90;62.80
82851;DHT22;72609;45.768;4.884;2024-02-23T15:14:26;10.90;61.30
82851;DHT22;72609;45.768;4.884;2024-02-23T15:16:52;10.90;61.30
82851;DHT22;72609;45.768;4.884;2024-02-23T15:19:17;10.90;61.70
82851;DHT22;72609;45.768;4.884;2024-02-23T15:21:43;10.90;62.00
82851;DHT22;72609;45.768;4.884;2024-02-23T15:24:10;10.80;62.50
82851;DHT22;72609;45.768;4.884;2024-02-23T15:26:35;10.80;62.90
82851;DHT22;72609;45.768;4.884;2024-02-23T15:29:01;10.70;63.40
82851;DHT22;72609;45.768;4.884;2024-02-23T15:31:29;10.70;63.80
82851;DHT22;72609;45.768;4.884;2024-02-23T15:33:54;10.60;63.90